KHYS

Hays Regional Airport

Hays, Kansas, USA
METAR KHYS 212356Z AUTO 07008KT 10SM OVC070 M04/M16 A3043 RMK AO2 SLP341 T10391161 11033 21044 58000 FZRANO
Observed Flight Rules
Feb-21 @ 23:56 UTC (5 hours ago) Visual Flight Rules
Wind Visibility Clouds
70° at 8 knots 10 miles
  • Overcast at 7,000' AGL
Temperatures Readings
Current -4°C / 25°F
Dewpoint -16°C / 3°F
Humidity 39%
Altimeter 30.43" Hg
Pressure 1034.1 hPa
Elevation 609
METAR KHYS 212356Z AUTO 07008KT 10SM OVC070 M04/M16 A3043 RMK AO2 SLP341 T10391161 11033 21044 58000 FZRANO
Observed Flight Rules
Feb-21 @ 23:56 UTC
(5 hours ago)
VFR
Wind Visibility
70° at 8 knots 10 miles
Clouds
  • Overcast at 7,000' AGL
Temperature Dewpoint
-4°C / 25°F -16°C / 3°F
Humidity Altimeter Pressure
39% 30.43" Hg 1034.1 hPa